createdAt,value
2022-08-20T00:00:05.261Z,1020.01
2022-08-20T00:00:39.227Z,1020.01
2022-08-20T00:01:11.383Z,1020.11
2022-08-20T00:01:37.219Z,1020.11
2022-08-20T00:02:16.166Z,1020.22
2022-08-20T00:02:47.285Z,1020.22
2022-08-20T00:03:19.972Z,1019.91
2022-08-20T00:03:44.577Z,1020.22
2022-08-20T00:04:05.563Z,1020.22
2022-08-20T00:04:39.847Z,1020.22
2022-08-20T00:05:11.498Z,1020.22
2022-08-20T00:05:45.036Z,1020.22
2022-08-20T00:06:16.130Z,1019.91
2022-08-20T00:06:48.039Z,1019.91
2022-08-20T00:07:22.460Z,1020.22
2022-08-20T00:07:45.240Z,1020.32
2022-08-20T00:08:23.307Z,1020.32
2022-08-20T00:08:45.962Z,1020.11
2022-08-20T00:09:09.898Z,1020.11
2022-08-20T00:09:43.361Z,1020.11
2022-08-20T00:10:15.695Z,1020.11
2022-08-20T00:10:49.748Z,1020.11
2022-08-20T00:11:19.347Z,1020.11
2022-08-20T00:11:42.039Z,1020.22
2022-08-20T00:12:06.230Z,1020.22
2022-08-20T00:12:39.816Z,1020.22
2022-08-20T00:13:11.174Z,1020.22
2022-08-20T00:13:43.937Z,1020.22
2022-08-20T00:14:15.327Z,1020.11
2022-08-20T00:14:47.571Z,1020.11
2022-08-20T00:15:19.451Z,1020.32
2022-08-20T00:15:42.071Z,1020.11
2022-08-20T00:16:06.664Z,1020.11
2022-08-20T00:16:39.537Z,1020.11
2022-08-20T00:17:11.882Z,1020.22
2022-08-20T00:17:43.309Z,1020.22
2022-08-20T00:18:17.455Z,1020.22
2022-08-20T00:18:47.468Z,1020.22
2022-08-20T00:19:19.909Z,1020.11
2022-08-20T00:19:42.749Z,1020.22
2022-08-20T00:20:07.094Z,1020.22
2022-08-20T00:20:39.642Z,1020.22
2022-08-20T00:21:11.614Z,1020.22
2022-08-20T00:21:44.108Z,1020.22
2022-08-20T00:22:15.424Z,1020.01
2022-08-20T00:22:47.724Z,1020.01
2022-08-20T00:23:19.294Z,1020.11
2022-08-20T00:23:42.043Z,1020.22
2022-08-20T00:24:04.577Z,1020.22
2022-08-20T00:24:39.552Z,1020.22
2022-08-20T00:25:11.323Z,1020.22
2022-08-20T00:25:43.219Z,1020.22
2022-08-20T00:26:15.976Z,1020.42
2022-08-20T00:26:52.270Z,1020.42
2022-08-20T00:27:19.647Z,1020.32
2022-08-20T00:27:42.219Z,1020.42
2022-08-20T00:28:05.011Z,1020.42
2022-08-20T00:28:39.887Z,1020.42
2022-08-20T00:29:11.552Z,1020.22
2022-08-20T00:29:43.250Z,1020.22
2022-08-20T00:30:15.271Z,1020.32
2022-08-20T00:30:48.518Z,1020.32
2022-08-20T00:31:19.326Z,1020.42
2022-08-20T00:31:42.095Z,1020.22
2022-08-20T00:32:04.431Z,1020.22
2022-08-20T00:32:39.271Z,1020.22
2022-08-20T00:33:11.293Z,1020.42
2022-08-20T00:33:43.610Z,1020.42
2022-08-20T00:34:16.129Z,1020.32
2022-08-20T00:34:48.018Z,1020.32
2022-08-20T00:35:19.675Z,1020.42
2022-08-20T00:35:42.491Z,1020.22
2022-08-20T00:36:04.996Z,1020.22
2022-08-20T00:36:39.283Z,1020.22
2022-08-20T00:37:12.659Z,1020.32
2022-08-20T00:37:46.915Z,1020.42
2022-08-20T00:38:09.483Z,1020.42
2022-08-20T00:38:47.561Z,1020.42
2022-08-20T00:39:19.197Z,1020.22
2022-08-20T00:39:42.284Z,1020.22
2022-08-20T00:40:04.630Z,1020.22
2022-08-20T00:40:44.878Z,1020.22
2022-08-20T00:41:11.258Z,1020.42
2022-08-20T00:41:43.209Z,1020.42
2022-08-20T00:42:15.123Z,1020.52
2022-08-20T00:42:47.099Z,1020.52
2022-08-20T00:43:16.462Z,1020.32
2022-08-20T00:43:47.884Z,1020.32
2022-08-20T00:44:24.649Z,1020.32
2022-08-20T00:44:47.301Z,1020.32
2022-08-20T00:45:10.191Z,1020.32
2022-08-20T00:45:43.272Z,1020.32
2022-08-20T00:46:15.161Z,1020.42
2022-08-20T00:46:47.587Z,1020.42
2022-08-20T00:47:19.168Z,1020.32
2022-08-20T00:47:41.774Z,1020.42
2022-08-20T00:48:04.255Z,1020.42
2022-08-20T00:48:39.123Z,1020.42
2022-08-20T00:49:11.298Z,1020.42
2022-08-20T00:49:43.160Z,1020.42
2022-08-20T00:50:15.215Z,1020.42
2022-08-20T00:50:47.232Z,1020.42
2022-08-20T00:51:19.318Z,1020.42
2022-08-20T00:51:42.010Z,1020.42
2022-08-20T00:52:04.519Z,1020.42
2022-08-20T00:52:39.210Z,1020.42
2022-08-20T00:53:11.277Z,1020.52
2022-08-20T00:53:43.035Z,1020.52
2022-08-20T00:54:15.109Z,1020.42
2022-08-20T00:54:47.570Z,1020.42
2022-08-20T00:55:19.227Z,1020.42
2022-08-20T00:55:41.859Z,1020.42
2022-08-20T00:56:04.551Z,1020.42
2022-08-20T00:56:39.405Z,1020.42
2022-08-20T00:57:11.480Z,1020.52
2022-08-20T00:57:44.557Z,1020.52
2022-08-20T00:58:15.067Z,1020.42
2022-08-20T00:58:47.506Z,1020.42
2022-08-20T00:59:19.390Z,1020.52
2022-08-20T00:59:41.834Z,1020.42
2022-08-20T01:00:04.639Z,1020.42
2022-08-20T01:00:39.197Z,1020.42
2022-08-20T01:01:12.287Z,1020.72
2022-08-20T01:01:55.228Z,1020.72
2022-08-20T01:02:15.146Z,1020.62
2022-08-20T01:02:47.198Z,1020.62
2022-08-20T01:03:19.736Z,1020.62
2022-08-20T01:03:41.943Z,1020.42
2022-08-20T01:04:04.378Z,1020.42
2022-08-20T01:04:39.111Z,1020.42
2022-08-20T01:05:12.483Z,1020.62
2022-08-20T01:05:43.206Z,1020.62
2022-08-20T01:06:15.221Z,1020.52
2022-08-20T01:06:47.369Z,1020.52
2022-08-20T01:07:19.303Z,1020.52
2022-08-20T01:07:43.647Z,1020.52
2022-08-20T01:08:06.047Z,1020.52
2022-08-20T01:08:39.152Z,1020.52
2022-08-20T01:09:13.902Z,1020.52
2022-08-20T01:09:58.006Z,1020.52
2022-08-20T01:10:15.140Z,1020.62
2022-08-20T01:10:47.051Z,1020.62
2022-08-20T01:11:19.118Z,1020.32
2022-08-20T01:11:42.129Z,1020.62
2022-08-20T01:12:04.714Z,1020.62
2022-08-20T01:12:39.229Z,1020.62
2022-08-20T01:13:11.106Z,1020.62
2022-08-20T01:13:43.269Z,1020.62
2022-08-20T01:14:18.515Z,1020.42
2022-08-20T01:14:47.146Z,1020.42
2022-08-20T01:15:19.650Z,1020.62
2022-08-20T01:15:43.406Z,1020.42
2022-08-20T01:16:06.120Z,1020.42
2022-08-20T01:16:40.640Z,1020.42
2022-08-20T01:17:12.783Z,1020.42
2022-08-20T01:17:43.163Z,1020.42
2022-08-20T01:18:20.912Z,1020.52
2022-08-20T01:18:47.153Z,1020.52
2022-08-20T01:19:29.578Z,1020.52
2022-08-20T01:19:41.717Z,1020.52
2022-08-20T01:20:04.323Z,1020.52
2022-08-20T01:20:39.163Z,1020.52
2022-08-20T01:21:11.134Z,1020.52
2022-08-20T01:21:46.822Z,1020.52
2022-08-20T01:22:15.215Z,1020.62
2022-08-20T01:22:47.195Z,1020.62
2022-08-20T01:23:19.329Z,1020.42
2022-08-20T01:23:43.389Z,1020.52
2022-08-20T01:24:05.810Z,1020.52
2022-08-20T01:24:39.240Z,1020.52
2022-08-20T01:25:11.158Z,1020.62
2022-08-20T01:25:38.043Z,1020.62
2022-08-20T01:26:15.696Z,1020.42
2022-08-20T01:26:48.069Z,1020.42
2022-08-20T01:27:20.179Z,1020.22
2022-08-20T01:27:43.012Z,1020.42
2022-08-20T01:28:05.048Z,1020.42
2022-08-20T01:28:39.726Z,1020.42
2022-08-20T01:29:11.069Z,1020.42
2022-08-20T01:29:55.901Z,1020.42
2022-08-20T01:30:15.662Z,1020.62
2022-08-20T01:30:47.283Z,1020.62
2022-08-20T01:31:19.965Z,1020.42
2022-08-20T01:31:41.839Z,1020.42
2022-08-20T01:32:04.551Z,1020.42
2022-08-20T01:32:39.464Z,1020.42
2022-08-20T01:33:11.654Z,1020.42
2022-08-20T01:33:44.238Z,1020.42
2022-08-20T01:34:16.106Z,1020.52
2022-08-20T01:34:47.323Z,1020.52
2022-08-20T01:35:19.861Z,1020.72
2022-08-20T01:35:42.599Z,1020.52
2022-08-20T01:36:05.012Z,1020.52
2022-08-20T01:36:44.239Z,1020.52
2022-08-20T01:37:11.311Z,1020.72
2022-08-20T01:37:43.189Z,1020.72
2022-08-20T01:38:16.467Z,1020.22
2022-08-20T01:38:53.117Z,1020.22
2022-08-20T01:39:19.502Z,1020.52
2022-08-20T01:39:42.103Z,1020.62
2022-08-20T01:40:04.510Z,1020.62
2022-08-20T01:40:44.886Z,1020.62
2022-08-20T01:41:11.337Z,1020.52
2022-08-20T01:41:43.194Z,1020.52
2022-08-20T01:42:16.963Z,1020.72
2022-08-20T01:42:58.495Z,1020.72
2022-08-20T01:43:19.439Z,1020.83
2022-08-20T01:43:42.031Z,1020.72
2022-08-20T01:44:04.864Z,1020.72
2022-08-20T01:44:39.205Z,1020.72
2022-08-20T01:45:11.418Z,1020.72
2022-08-20T01:45:43.106Z,1020.72
2022-08-20T01:46:15.131Z,1020.72
2022-08-20T01:46:47.487Z,1020.72
2022-08-20T01:47:19.199Z,1020.62
2022-08-20T01:47:42.034Z,1020.62
2022-08-20T01:48:05.165Z,1020.62
2022-08-20T01:48:40.759Z,1020.62
2022-08-20T01:49:13.491Z,1020.52
2022-08-20T01:49:43.166Z,1020.52
2022-08-20T01:50:15.198Z,1020.52
2022-08-20T01:50:47.078Z,1020.52
2022-08-20T01:51:18.172Z,1020.72
2022-08-20T01:51:49.034Z,1020.52
2022-08-20T01:52:23.596Z,1020.52
2022-08-20T01:52:46.262Z,1020.42
2022-08-20T01:53:12.187Z,1020.42
2022-08-20T01:53:43.800Z,1020.42
2022-08-20T01:54:15.564Z,1020.52
2022-08-20T01:54:47.755Z,1020.52
2022-08-20T01:55:19.144Z,1020.52
2022-08-20T01:55:41.918Z,1020.52
2022-08-20T01:56:04.713Z,1020.52
2022-08-20T01:56:39.372Z,1020.52
2022-08-20T01:57:11.166Z,1020.52
2022-08-20T01:57:46.779Z,1020.42
2022-08-20T01:58:09.267Z,1020.42
2022-08-20T01:58:47.138Z,1020.42
2022-08-20T01:59:16.227Z,1020.52
2022-08-20T01:59:47.843Z,1020.62
2022-08-20T02:00:23.229Z,1020.62
2022-08-20T02:00:51.724Z,1020.72
2022-08-20T02:01:10.714Z,1020.72
2022-08-20T02:01:46.244Z,1020.72
2022-08-20T02:02:15.023Z,1020.32
2022-08-20T02:02:47.436Z,1020.32
2022-08-20T02:03:20.214Z,1020.52
2022-08-20T02:03:44.481Z,1020.42
2022-08-20T02:04:04.438Z,1020.42
2022-08-20T02:04:38.999Z,1020.42
2022-08-20T02:05:13.681Z,1020.52
2022-08-20T02:05:43.166Z,1020.52
2022-08-20T02:06:15.130Z,1020.42
2022-08-20T02:06:56.315Z,1020.42
2022-08-20T02:07:20.692Z,1020.52
2022-08-20T02:07:42.400Z,1020.62
2022-08-20T02:08:04.771Z,1020.62
2022-08-20T02:08:39.042Z,1020.62
2022-08-20T02:09:15.919Z,1020.62
2022-08-20T02:09:45.462Z,1020.62
2022-08-20T02:10:18.588Z,1020.52
2022-08-20T02:10:47.053Z,1020.52
2022-08-20T02:11:20.990Z,1020.42
2022-08-20T02:11:43.227Z,1020.83
2022-08-20T02:12:05.507Z,1020.83
2022-08-20T02:12:39.035Z,1020.83
2022-08-20T02:13:11.046Z,1020.52
2022-08-20T02:13:43.115Z,1020.52
2022-08-20T02:14:15.381Z,1020.52
2022-08-20T02:14:47.114Z,1020.52
2022-08-20T02:15:19.299Z,1020.42
2022-08-20T02:15:42.959Z,1020.52
2022-08-20T02:16:04.357Z,1020.52
2022-08-20T02:16:39.106Z,1020.52
2022-08-20T02:17:11.097Z,1020.72
2022-08-20T02:17:38.587Z,1020.72
2022-08-20T02:18:17.943Z,1020.72
2022-08-20T02:18:47.494Z,1020.72
2022-08-20T02:19:24.178Z,1020.62
2022-08-20T02:19:45.802Z,1020.42
2022-08-20T02:20:23.194Z,1020.42
2022-08-20T02:20:46.028Z,1020.62
2022-08-20T02:21:08.489Z,1020.62
2022-08-20T02:21:43.127Z,1020.62
2022-08-20T02:22:15.294Z,1020.62
2022-08-20T02:22:49.931Z,1020.62
2022-08-20T02:23:19.030Z,1020.62
2022-08-20T02:23:41.760Z,1020.83
2022-08-20T02:24:04.153Z,1020.83
2022-08-20T02:24:40.535Z,1020.83
2022-08-20T02:25:11.189Z,1020.72
2022-08-20T02:25:43.043Z,1020.72
2022-08-20T02:26:15.340Z,1020.52
2022-08-20T02:26:47.447Z,1020.52
2022-08-20T02:27:16.509Z,1020.42
2022-08-20T02:27:47.799Z,1020.62
2022-08-20T02:32:24.602Z,1020.83
2022-08-20T02:32:39.424Z,1020.83
2022-08-20T02:33:11.087Z,1020.72
2022-08-20T02:33:43.461Z,1020.72
2022-08-20T02:34:30.981Z,1020.72
2022-08-20T02:34:55.402Z,1020.93
2022-08-20T02:35:16.265Z,1020.93
2022-08-20T02:35:47.926Z,1020.52
2022-08-20T02:36:24.324Z,1020.52
2022-08-20T02:36:45.782Z,1020.62
2022-08-20T02:37:08.350Z,1020.62
2022-08-20T02:37:43.064Z,1020.62
2022-08-20T02:38:14.966Z,1020.62
2022-08-20T02:38:47.074Z,1020.62
2022-08-20T02:39:19.122Z,1020.72
2022-08-20T02:39:41.889Z,1020.72
2022-08-20T02:40:04.374Z,1020.72
2022-08-20T02:40:39.002Z,1020.72
2022-08-20T02:41:10.974Z,1020.93
2022-08-20T02:41:42.946Z,1020.93
2022-08-20T02:42:15.035Z,1020.62
2022-08-20T02:42:46.996Z,1020.62
2022-08-20T02:43:16.703Z,1020.62
2022-08-20T02:43:47.867Z,1020.72
2022-08-20T02:44:23.083Z,1020.72
2022-08-20T02:44:45.770Z,1020.62
2022-08-20T02:45:08.128Z,1020.62
2022-08-20T02:45:43.047Z,1020.62
2022-08-20T02:46:14.961Z,1020.62
2022-08-20T02:46:47.034Z,1020.62
2022-08-20T02:47:16.267Z,1020.72
2022-08-20T02:47:47.888Z,1020.72
2022-08-20T02:48:23.143Z,1020.72
2022-08-20T02:48:45.731Z,1020.62
2022-08-20T02:49:08.079Z,1020.62
2022-08-20T02:49:43.062Z,1020.62
2022-08-20T02:50:14.990Z,1020.83
2022-08-20T02:50:47.059Z,1020.83
2022-08-20T02:51:16.188Z,1020.83
2022-08-20T02:51:47.935Z,1020.83
2022-08-20T02:52:23.111Z,1020.83
2022-08-20T02:52:52.013Z,1020.72
2022-08-20T02:53:08.331Z,1020.72
2022-08-20T02:53:43.004Z,1020.72
2022-08-20T02:54:15.057Z,1021.03
2022-08-20T02:54:47.124Z,1021.03
2022-08-20T02:55:27.951Z,1020.72
2022-08-20T02:55:41.592Z,1020.72
2022-08-20T02:56:03.972Z,1020.72
2022-08-20T02:56:39.164Z,1020.72
2022-08-20T02:57:11.058Z,1020.72
2022-08-20T02:57:43.062Z,1020.72
2022-08-20T02:58:15.119Z,1020.83
2022-08-20T02:58:46.922Z,1020.83
2022-08-20T02:59:19.103Z,1020.72
2022-08-20T02:59:48.006Z,1020.42
2022-08-20T03:00:23.046Z,1020.42
2022-08-20T03:00:45.699Z,1020.83
2022-08-20T03:01:08.168Z,1020.83
2022-08-20T03:01:43.082Z,1020.83
2022-08-20T03:02:15.028Z,1020.83
2022-08-20T03:02:46.964Z,1020.83
2022-08-20T03:03:19.003Z,1020.52
2022-08-20T03:03:41.842Z,1020.72
2022-08-20T03:04:05.182Z,1020.72
2022-08-20T03:04:38.987Z,1020.72
2022-08-20T03:05:10.990Z,1020.72
2022-08-20T03:05:43.038Z,1020.72
2022-08-20T03:06:14.907Z,1020.62
2022-08-20T03:06:46.996Z,1020.62
2022-08-20T03:07:16.206Z,1020.62
2022-08-20T03:07:47.992Z,1020.52
2022-08-20T03:08:23.182Z,1020.52
2022-08-20T03:08:45.863Z,1020.62
2022-08-20T03:09:08.280Z,1020.62
2022-08-20T03:09:43.102Z,1020.62
2022-08-20T03:10:14.892Z,1020.62
2022-08-20T03:10:46.926Z,1020.62
2022-08-20T03:11:16.303Z,1020.42
2022-08-20T03:11:47.812Z,1020.52
2022-08-20T03:12:23.038Z,1020.52
2022-08-20T03:12:45.619Z,1020.62
2022-08-20T03:13:08.110Z,1020.62
2022-08-20T03:13:43.148Z,1020.62
2022-08-20T03:14:14.988Z,1020.52
2022-08-20T03:14:47.031Z,1020.52
2022-08-20T03:15:17.845Z,1020.52
2022-08-20T03:15:47.987Z,1020.32
2022-08-20T03:16:23.106Z,1020.32
2022-08-20T03:16:45.916Z,1020.32
2022-08-20T03:17:08.180Z,1020.32
2022-08-20T03:17:42.890Z,1020.32
2022-08-20T03:18:15.028Z,1020.42
2022-08-20T03:18:47.053Z,1020.42
2022-08-20T03:19:16.278Z,1020.52
2022-08-20T03:19:47.970Z,1020.32
2022-08-20T03:20:23.963Z,1020.32
2022-08-20T03:20:46.463Z,1020.42
2022-08-20T03:21:09.924Z,1020.42
2022-08-20T03:21:43.000Z,1020.42
2022-08-20T03:22:15.019Z,1020.32
2022-08-20T03:22:47.082Z,1020.32
2022-08-20T03:23:16.595Z,1020.32
2022-08-20T03:23:47.929Z,1020.52
2022-08-20T03:24:22.856Z,1020.52
2022-08-20T03:24:45.792Z,1020.42
2022-08-20T03:25:08.155Z,1020.42
2022-08-20T03:25:43.080Z,1020.42
2022-08-20T03:26:15.019Z,1020.32
2022-08-20T03:26:47.211Z,1020.32
2022-08-20T03:27:18.840Z,1020.52
2022-08-20T03:27:41.782Z,1020.42
2022-08-20T03:28:04.001Z,1020.42
2022-08-20T03:28:38.996Z,1020.42
2022-08-20T03:29:11.275Z,1020.42
2022-08-20T03:29:42.957Z,1020.42
2022-08-20T03:30:15.008Z,1020.42
2022-08-20T03:30:46.877Z,1020.42
2022-08-20T03:31:16.416Z,1020.62
2022-08-20T03:31:47.937Z,1020.52
2022-08-20T03:32:23.088Z,1020.52
2022-08-20T03:32:46.951Z,1020.62
2022-08-20T03:33:09.278Z,1020.62
2022-08-20T03:33:52.681Z,1020.62
2022-08-20T03:34:14.993Z,1020.52
2022-08-20T03:34:47.506Z,1020.52
2022-08-20T03:35:19.297Z,1020.52
2022-08-20T03:35:42.000Z,1020.42
2022-08-20T03:36:04.407Z,1020.42
2022-08-20T03:36:39.009Z,1020.42
2022-08-20T03:37:10.949Z,1020.42
2022-08-20T03:37:48.131Z,1020.42
2022-08-20T03:38:15.005Z,1020.62
2022-08-20T03:38:47.065Z,1020.62
2022-08-20T03:39:19.113Z,1020.42
2022-08-20T03:39:42.964Z,1020.72
2022-08-20T03:40:05.835Z,1020.72
2022-08-20T03:40:39.067Z,1020.72
2022-08-20T03:41:11.106Z,1020.72
2022-08-20T03:41:43.085Z,1020.72
2022-08-20T03:42:14.981Z,1020.42
2022-08-20T03:42:46.879Z,1020.42
2022-08-20T03:43:19.216Z,1020.72
2022-08-20T03:43:41.786Z,1020.62
2022-08-20T03:44:04.208Z,1020.62
2022-08-20T03:44:39.060Z,1020.62
2022-08-20T03:45:11.059Z,1020.52
2022-08-20T03:45:42.870Z,1020.52
2022-08-20T03:46:23.124Z,1020.72
2022-08-20T03:46:46.974Z,1020.72
2022-08-20T03:47:21.073Z,1020.32
2022-08-20T03:47:42.536Z,1020.42
2022-08-20T03:48:05.538Z,1020.42
2022-08-20T03:48:39.013Z,1020.42
2022-08-20T03:49:10.970Z,1020.42
2022-08-20T03:49:42.960Z,1020.42
2022-08-20T03:50:22.802Z,1020.62
2022-08-20T03:50:46.825Z,1020.62
2022-08-20T03:51:16.246Z,1020.52
2022-08-20T03:51:57.086Z,1020.62
2022-08-20T03:52:04.883Z,1020.62
2022-08-20T03:52:39.006Z,1020.62
2022-08-20T03:53:12.282Z,1020.72
2022-08-20T03:53:43.052Z,1020.72
2022-08-20T03:54:15.094Z,1020.72
2022-08-20T03:54:47.167Z,1020.72
2022-08-20T03:55:22.408Z,1020.72
2022-08-20T03:55:41.979Z,1020.83
2022-08-20T03:56:04.257Z,1020.83
2022-08-20T03:56:39.066Z,1020.83
2022-08-20T03:57:12.589Z,1020.62
2022-08-20T03:57:43.072Z,1020.62
2022-08-20T03:58:15.130Z,1020.93
2022-08-20T03:58:47.000Z,1020.93
2022-08-20T03:59:16.309Z,1020.62
2022-08-20T03:59:49.866Z,1020.72
2022-08-20T04:00:23.462Z,1020.72
2022-08-20T04:00:45.759Z,1020.72
2022-08-20T04:01:36.881Z,1020.72
2022-08-20T04:01:49.689Z,1020.83
2022-08-20T04:02:12.399Z,1020.83
2022-08-20T04:02:46.985Z,1020.83
2022-08-20T04:03:22.368Z,1020.83
2022-08-20T04:03:42.004Z,1020.72
2022-08-20T04:04:04.342Z,1020.72
2022-08-20T04:04:39.442Z,1020.72
2022-08-20T04:05:10.913Z,1020.72
2022-08-20T04:05:46.333Z,1020.72
2022-08-20T04:06:14.964Z,1020.72
2022-08-20T04:06:46.950Z,1020.72
2022-08-20T04:07:23.388Z,1020.72
2022-08-20T04:07:42.169Z,1020.52
2022-08-20T04:08:04.454Z,1020.52
2022-08-20T04:08:39.106Z,1020.52
2022-08-20T04:09:13.466Z,1020.83
2022-08-20T04:09:43.118Z,1020.83
2022-08-20T04:10:14.840Z,1020.62
2022-08-20T04:10:47.020Z,1020.62
2022-08-20T04:11:16.405Z,1020.62
2022-08-20T04:11:47.945Z,1020.62
2022-08-20T04:12:23.307Z,1020.62
2022-08-20T04:12:53.007Z,1020.72
2022-08-20T04:13:10.418Z,1020.72
2022-08-20T04:13:43.485Z,1020.72
2022-08-20T04:14:18.465Z,1020.72
2022-08-20T04:14:46.892Z,1020.72
2022-08-20T04:15:19.212Z,1020.93
2022-08-20T04:15:42.487Z,1020.83
2022-08-20T04:16:04.861Z,1020.83
2022-08-20T04:16:39.596Z,1020.83
2022-08-20T04:17:15.445Z,1020.93
2022-08-20T04:17:38.927Z,1020.93
2022-08-20T04:18:19.627Z,1020.93
2022-08-20T04:18:58.580Z,1020.62
2022-08-20T04:19:14.384Z,1020.62
2022-08-20T04:19:43.965Z,1020.72
2022-08-20T04:20:07.005Z,1020.72
2022-08-20T04:20:38.989Z,1020.72
2022-08-20T04:21:11.009Z,1020.72
2022-08-20T04:21:43.001Z,1020.72
2022-08-20T04:22:15.268Z,1020.72
2022-08-20T04:22:58.610Z,1020.72
2022-08-20T04:23:16.931Z,1020.62
2022-08-20T04:23:48.064Z,1020.83
2022-08-20T04:24:32.199Z,1020.83
2022-08-20T04:24:46.175Z,1021.03
2022-08-20T04:25:08.631Z,1021.03
2022-08-20T04:25:43.371Z,1021.03
2022-08-20T04:26:15.018Z,1021.03
2022-08-20T04:26:47.028Z,1021.03
2022-08-20T04:27:16.429Z,1021.03
2022-08-20T04:27:48.004Z,1021.13
2022-08-20T04:28:22.862Z,1021.13
2022-08-20T04:28:46.175Z,1021.03
2022-08-20T04:29:08.430Z,1021.03
2022-08-20T04:29:42.898Z,1021.03
2022-08-20T04:30:15.485Z,1021.03
2022-08-20T04:30:51.917Z,1021.03
2022-08-20T04:31:23.169Z,1021.03
2022-08-20T04:31:42.738Z,1021.03
2022-08-20T04:32:05.868Z,1021.03
2022-08-20T04:32:38.890Z,1021.03
2022-08-20T04:33:10.976Z,1021.03
2022-08-20T04:33:43.180Z,1021.03
2022-08-20T04:34:15.129Z,1021.33
2022-08-20T04:34:51.351Z,1021.33
2022-08-20T04:35:18.935Z,1021.13
2022-08-20T04:35:41.819Z,1021.13
2022-08-20T04:36:04.040Z,1021.13
2022-08-20T04:36:39.124Z,1021.13
2022-08-20T04:37:16.954Z,1021.23
2022-08-20T04:37:42.832Z,1021.23
2022-08-20T04:38:14.945Z,1021.13
2022-08-20T04:38:48.423Z,1021.13
2022-08-20T04:39:19.590Z,1021.23
2022-08-20T04:39:42.628Z,1021.23
2022-08-20T04:40:04.976Z,1021.23
2022-08-20T04:40:45.105Z,1021.23
2022-08-20T04:41:11.073Z,1021.33
2022-08-20T04:41:42.903Z,1021.33
2022-08-20T04:42:15.389Z,1021.23
2022-08-20T04:42:46.978Z,1021.23
2022-08-20T04:43:18.889Z,1021.23
2022-08-20T04:43:48.071Z,1021.23
2022-08-20T04:44:23.023Z,1021.23
2022-08-20T04:44:45.537Z,1021.43
2022-08-20T04:45:08.270Z,1021.43
2022-08-20T04:45:43.456Z,1021.43
2022-08-20T04:46:15.053Z,1021.13
2022-08-20T04:46:46.967Z,1021.13
2022-08-20T04:47:16.611Z,1020.83
2022-08-20T04:47:48.096Z,1020.93
2022-08-20T04:48:22.944Z,1020.93
2022-08-20T04:48:48.528Z,1021.13
2022-08-20T04:49:08.043Z,1021.13
2022-08-20T04:49:42.865Z,1021.13
2022-08-20T04:50:15.048Z,1021.23
2022-08-20T04:50:47.045Z,1021.23
2022-08-20T04:51:19.024Z,1021.13
2022-08-20T04:51:42.447Z,1021.03
2022-08-20T04:52:04.520Z,1021.03
2022-08-20T04:52:38.957Z,1021.03
2022-08-20T04:53:10.934Z,1021.13
2022-08-20T04:53:44.760Z,1021.13
2022-08-20T04:54:15.089Z,1021.43
2022-08-20T04:54:47.187Z,1021.43
2022-08-20T04:55:16.296Z,1021.23
2022-08-20T04:55:47.988Z,1021.33
2022-08-20T04:56:23.044Z,1021.33
2022-08-20T04:56:46.076Z,1021.33
2022-08-20T04:57:08.380Z,1021.33
2022-08-20T04:57:43.970Z,1021.33
2022-08-20T04:58:14.827Z,1021.23
2022-08-20T04:58:47.078Z,1021.23
2022-08-20T04:59:18.879Z,1021.23
2022-08-20T04:59:51.038Z,1021.23
2022-08-20T05:00:22.945Z,1021.23
2022-08-20T05:00:45.664Z,1021.13
2022-08-20T05:01:08.030Z,1021.13
2022-08-20T05:01:43.076Z,1021.13
2022-08-20T05:02:17.034Z,1021.33
2022-08-20T05:02:48.914Z,1021.33
2022-08-20T05:03:16.618Z,1021.33
2022-08-20T05:03:48.120Z,1021.33
2022-08-20T05:04:23.436Z,1021.33
2022-08-20T05:04:46.179Z,1021.13
2022-08-20T05:47:39.585Z,1021.33
2022-08-20T05:48:06.863Z,1021.43
2022-08-20T05:48:39.590Z,1021.43
2022-08-20T05:49:10.923Z,1021.64
2022-08-20T05:49:45.542Z,1021.64
2022-08-20T05:50:19.916Z,1021.54
2022-08-20T05:50:46.843Z,1021.54
2022-08-20T05:51:20.607Z,1021.64
2022-08-20T05:51:45.667Z,1021.54
2022-08-20T05:52:05.847Z,1021.54
2022-08-20T05:52:39.255Z,1021.54
2022-08-20T05:53:11.524Z,1021.54
2022-08-20T05:53:45.677Z,1021.54
2022-08-20T05:54:15.042Z,1021.43
2022-08-20T05:54:47.847Z,1021.43
2022-08-20T05:55:18.927Z,1021.54
2022-08-20T05:55:52.159Z,1021.54
2022-08-20T05:56:26.923Z,1021.54
2022-08-20T05:56:46.451Z,1021.64
2022-08-20T05:57:08.041Z,1021.64
2022-08-20T05:57:43.347Z,1021.64
2022-08-20T05:58:15.268Z,1021.54
2022-08-20T05:58:47.051Z,1021.54
2022-08-20T05:59:21.066Z,1021.33
2022-08-20T05:59:48.202Z,1021.84
2022-08-20T06:00:24.977Z,1021.84
2022-08-20T06:00:47.296Z,1021.74
2022-08-20T06:01:09.943Z,1021.74
2022-08-20T06:01:43.918Z,1021.74
2022-08-20T06:02:14.967Z,1021.54
2022-08-20T06:02:51.165Z,1021.54
2022-08-20T06:03:22.658Z,1021.54
2022-08-20T06:03:43.023Z,1021.54
2022-08-20T06:04:06.153Z,1021.54
2022-08-20T06:04:38.927Z,1021.54
2022-08-20T06:05:11.455Z,1021.54
2022-08-20T06:05:43.167Z,1021.54
2022-08-20T06:06:28.483Z,1021.54
2022-08-20T06:07:22.526Z,1021.54
2022-08-20T06:07:44.945Z,1021.74
2022-08-20T06:08:16.763Z,1021.74
2022-08-20T06:08:43.147Z,1021.54
2022-08-20T06:09:05.041Z,1021.54
2022-08-20T06:09:44.527Z,1021.54
2022-08-20T06:10:14.938Z,1021.64
2022-08-20T06:10:48.979Z,1021.64
2022-08-20T06:11:16.381Z,1021.33
2022-08-20T06:11:49.102Z,1021.54
2022-08-20T06:12:23.328Z,1021.54
2022-08-20T06:12:45.729Z,1021.54
2022-08-20T06:13:08.054Z,1021.54
2022-08-20T06:13:42.946Z,1021.54
2022-08-20T06:14:14.950Z,1021.54
2022-08-20T06:14:48.830Z,1021.54
2022-08-20T06:15:16.425Z,1021.54
2022-08-20T06:15:48.974Z,1021.54
2022-08-20T06:16:22.951Z,1021.54
2022-08-20T06:16:57.437Z,1021.54
2022-08-20T06:17:08.686Z,1021.54
2022-08-20T06:17:43.103Z,1021.54
2022-08-20T06:18:28.642Z,1021.64
2022-08-20T06:18:50.611Z,1021.64
2022-08-20T06:19:26.102Z,1021.74
2022-08-20T06:19:49.802Z,1021.74
2022-08-20T06:20:22.910Z,1021.74
2022-08-20T06:20:45.580Z,1021.74
2022-08-20T06:21:07.946Z,1021.74
2022-08-20T06:21:42.971Z,1021.74
2022-08-20T06:22:20.526Z,1021.54
2022-08-20T06:22:47.317Z,1021.54
2022-08-20T06:23:16.263Z,1021.54
2022-08-20T06:23:59.533Z,1021.64
2022-08-20T06:24:22.787Z,1021.64
2022-08-20T06:24:47.923Z,1021.43
2022-08-20T06:25:09.947Z,1021.43
2022-08-20T06:25:42.775Z,1021.43
2022-08-20T06:26:29.898Z,1021.43
2022-08-20T06:26:46.765Z,1021.43
2022-08-20T06:27:16.387Z,1021.43
2022-08-20T06:27:50.337Z,1021.54
2022-08-20T06:28:22.848Z,1021.54
2022-08-20T06:28:45.506Z,1021.54
2022-08-20T06:29:07.934Z,1021.54
2022-08-20T06:29:42.798Z,1021.54
2022-08-20T06:30:14.814Z,1021.43
2022-08-20T06:30:46.648Z,1021.43
2022-08-20T06:31:16.404Z,1021.33
2022-08-20T06:31:48.077Z,1021.74
2022-08-20T06:32:31.854Z,1021.74
2022-08-20T06:32:45.948Z,1021.64
2022-08-20T06:33:08.587Z,1021.64
2022-08-20T06:33:42.815Z,1021.64
2022-08-20T06:34:14.734Z,1021.54
2022-08-20T06:34:49.835Z,1021.54
2022-08-20T06:35:20.136Z,1021.43
2022-08-20T06:35:41.982Z,1021.54
2022-08-20T06:36:04.402Z,1021.54
2022-08-20T06:36:38.806Z,1021.54
2022-08-20T06:37:10.851Z,1021.33
2022-08-20T06:37:42.787Z,1021.33
2022-08-20T06:38:15.147Z,1021.54
2022-08-20T06:38:46.817Z,1021.54
2022-08-20T06:39:16.576Z,1021.54
2022-08-20T06:39:48.071Z,1021.54
2022-08-20T06:40:22.942Z,1021.54
2022-08-20T06:40:45.658Z,1021.54
2022-08-20T06:41:08.022Z,1021.54
2022-08-20T06:41:42.884Z,1021.54
2022-08-20T06:42:14.756Z,1021.54
2022-08-20T06:42:48.809Z,1021.54
2022-08-20T06:43:16.469Z,1021.54
2022-08-20T06:43:48.360Z,1021.64
2022-08-20T06:44:22.917Z,1021.64
2022-08-20T06:44:46.494Z,1021.23
2022-08-20T06:45:08.746Z,1021.23
2022-08-20T06:45:42.747Z,1021.23
2022-08-20T06:46:14.762Z,1021.64
2022-08-20T06:46:46.742Z,1021.64
2022-08-20T06:47:16.478Z,1021.54
2022-08-20T06:47:56.490Z,1021.43
2022-08-20T06:48:18.986Z,1021.43
2022-08-20T06:48:49.277Z,1021.64
2022-08-20T06:49:26.725Z,1021.64
2022-08-20T06:49:49.471Z,1021.43